sensor_id;sensor_type;location;lat;lon;timestamp;pressure;altitude;pressure_sealevel;temperature;humidity
33163;BME280;29282;45.656;11.302;2023-05-12T00:00:46;97920.88;;;18.36;61.05
33163;BME280;29282;45.656;11.302;2023-05-12T00:03:13;97922.84;;;18.35;61.25
33163;BME280;29282;45.656;11.302;2023-05-12T00:05:38;97921.22;;;18.34;61.23
33163;BME280;29282;45.656;11.302;2023-05-12T00:08:04;97922.03;;;18.35;61.30
33163;BME280;29282;45.656;11.302;2023-05-12T00:10:30;97923.63;;;18.36;61.19
33163;BME280;29282;45.656;11.302;2023-05-12T00:12:55;97927.16;;;18.36;61.09
33163;BME280;29282;45.656;11.302;2023-05-12T00:15:21;97922.84;;;18.35;61.01
33163;BME280;29282;45.656;11.302;2023-05-12T00:17:47;97931.06;;;18.35;61.28
33163;BME280;29282;45.656;11.302;2023-05-12T00:20:12;97933.00;;;18.35;61.19
33163;BME280;29282;45.656;11.302;2023-05-12T00:22:38;97926.69;;;18.34;61.26
33163;BME280;29282;45.656;11.302;2023-05-12T00:25:04;97933.00;;;18.35;61.10
33163;BME280;29282;45.656;11.302;2023-05-12T00:27:30;97928.66;;;18.34;61.20
33163;BME280;29282;45.656;11.302;2023-05-12T00:29:56;97930.59;;;18.33;61.05
33163;BME280;29282;45.656;11.302;2023-05-12T00:32:23;97931.38;;;18.34;61.02
33163;BME280;29282;45.656;11.302;2023-05-12T00:34:48;97927.84;;;18.33;61.03
33163;BME280;29282;45.656;11.302;2023-05-12T00:37:14;97941.25;;;18.35;61.02
33163;BME280;29282;45.656;11.302;2023-05-12T00:39:40;97937.66;;;18.34;61.03
33163;BME280;29282;45.656;11.302;2023-05-12T00:42:05;97931.75;;;18.32;61.04
33163;BME280;29282;45.656;11.302;2023-05-12T00:44:31;97930.59;;;18.33;61.14
33163;BME280;29282;45.656;11.302;2023-05-12T00:46:57;97938.03;;;18.33;60.97
33163;BME280;29282;45.656;11.302;2023-05-12T00:49:23;97934.50;;;18.32;61.25
33163;BME280;29282;45.656;11.302;2023-05-12T00:51:50;97933.34;;;18.33;61.13
33163;BME280;29282;45.656;11.302;2023-05-12T00:54:15;97928.22;;;18.31;61.15
33163;BME280;29282;45.656;11.302;2023-05-12T00:56:44;97937.22;;;18.32;61.00
33163;BME280;29282;45.656;11.302;2023-05-12T00:59:09;97939.19;;;18.31;61.18
33163;BME280;29282;45.656;11.302;2023-05-12T01:01:35;97935.28;;;18.33;60.98
33163;BME280;29282;45.656;11.302;2023-05-12T01:04:01;97931.75;;;18.32;61.34
33163;BME280;29282;45.656;11.302;2023-05-12T01:06:37;97934.50;;;18.32;61.01
33163;BME280;29282;45.656;11.302;2023-05-12T01:09:03;97935.63;;;18.31;60.88
33163;BME280;29282;45.656;11.302;2023-05-12T01:11:29;97933.69;;;18.31;61.10
33163;BME280;29282;45.656;11.302;2023-05-12T01:13:54;97928.22;;;18.31;60.86
33163;BME280;29282;45.656;11.302;2023-05-12T01:16:22;97927.41;;;18.31;60.94
33163;BME280;29282;45.656;11.302;2023-05-12T01:18:53;97926.59;;;18.30;60.85
33163;BME280;29282;45.656;11.302;2023-05-12T01:21:20;97921.09;;;18.30;61.06
33163;BME280;29282;45.656;11.302;2023-05-12T01:23:50;97923.84;;;18.30;61.08
33163;BME280;29282;45.656;11.302;2023-05-12T01:26:16;97924.66;;;18.31;60.98
33163;BME280;29282;45.656;11.302;2023-05-12T01:28:42;97918.34;;;18.30;60.85
33163;BME280;29282;45.656;11.302;2023-05-12T01:31:08;97919.97;;;18.31;60.97
33163;BME280;29282;45.656;11.302;2023-05-12T01:33:34;97918.34;;;18.30;60.87
33163;BME280;29282;45.656;11.302;2023-05-12T01:36:00;97916.78;;;18.29;60.98
33163;BME280;29282;45.656;11.302;2023-05-12T01:38:26;97921.09;;;18.30;61.13
33163;BME280;29282;45.656;11.302;2023-05-12T01:40:51;97916.78;;;18.29;60.78
33163;BME280;29282;45.656;11.302;2023-05-12T01:43:20;97918.34;;;18.30;60.85
33163;BME280;29282;45.656;11.302;2023-05-12T01:45:45;97923.84;;;18.30;60.83
33163;BME280;29282;45.656;11.302;2023-05-12T01:48:10;97915.19;;;18.28;60.85
33163;BME280;29282;45.656;11.302;2023-05-12T01:50:36;97921.47;;;18.29;60.79
33163;BME280;29282;45.656;11.302;2023-05-12T01:53:01;97921.47;;;18.29;60.83
33163;BME280;29282;45.656;11.302;2023-05-12T01:55:27;97925.00;;;18.29;60.89
33163;BME280;29282;45.656;11.302;2023-05-12T01:57:52;97918.72;;;18.29;60.91
33163;BME280;29282;45.656;11.302;2023-05-12T02:00:18;97919.50;;;18.29;60.67
33163;BME280;29282;45.656;11.302;2023-05-12T02:02:46;97926.94;;;18.29;61.07
33163;BME280;29282;45.656;11.302;2023-05-12T02:05:12;97928.09;;;18.28;60.64
33163;BME280;29282;45.656;11.302;2023-05-12T02:07:37;97928.88;;;18.28;60.73
33163;BME280;29282;45.656;11.302;2023-05-12T02:10:03;97935.97;;;18.29;60.78
33163;BME280;29282;45.656;11.302;2023-05-12T02:12:29;97930.84;;;18.28;60.91
33163;BME280;29282;45.656;11.302;2023-05-12T02:14:54;97931.63;;;18.28;60.77
33163;BME280;29282;45.656;11.302;2023-05-12T02:17:20;97936.31;;;18.28;60.80
33163;BME280;29282;45.656;11.302;2023-05-12T02:19:45;97934.38;;;18.28;60.84
33163;BME280;29282;45.656;11.302;2023-05-12T02:22:11;97939.84;;;18.28;60.70
33163;BME280;29282;45.656;11.302;2023-05-12T02:24:36;97932.75;;;18.27;60.84
33163;BME280;29282;45.656;11.302;2023-05-12T02:27:02;97931.97;;;18.27;60.69
33163;BME280;29282;45.656;11.302;2023-05-12T02:29:27;97931.97;;;18.27;60.61
33163;BME280;29282;45.656;11.302;2023-05-12T02:31:53;97930.00;;;18.27;60.64
33163;BME280;29282;45.656;11.302;2023-05-12T02:34:18;97922.94;;;18.26;60.73
33163;BME280;29282;45.656;11.302;2023-05-12T02:36:43;97922.94;;;18.26;60.78
33163;BME280;29282;45.656;11.302;2023-05-12T02:39:09;97923.72;;;18.27;60.72
33163;BME280;29282;45.656;11.302;2023-05-12T02:41:34;97931.16;;;18.26;60.77
33163;BME280;29282;45.656;11.302;2023-05-12T02:44:00;97940.19;;;18.27;60.59
33163;BME280;29282;45.656;11.302;2023-05-12T02:46:25;97933.91;;;18.26;60.80
33163;BME280;29282;45.656;11.302;2023-05-12T02:48:50;97930.38;;;18.26;60.70
33163;BME280;29282;45.656;11.302;2023-05-12T02:51:19;97930.38;;;18.26;60.56
33163;BME280;29282;45.656;11.302;2023-05-12T02:53:44;97929.56;;;18.25;60.73
33163;BME280;29282;45.656;11.302;2023-05-12T02:56:10;97939.38;;;18.26;60.67
33163;BME280;29282;45.656;11.302;2023-05-12T02:58:36;97942.13;;;18.26;60.58
33163;BME280;29282;45.656;11.302;2023-05-12T03:01:01;97946.03;;;18.25;60.68
33163;BME280;29282;45.656;11.302;2023-05-12T03:03:27;97940.53;;;18.25;60.61
33163;BME280;29282;45.656;11.302;2023-05-12T03:05:52;97937.81;;;18.25;60.58
33163;BME280;29282;45.656;11.302;2023-05-12T03:08:18;97926.03;;;18.25;60.60
33163;BME280;29282;45.656;11.302;2023-05-12T03:10:46;97930.69;;;18.24;60.62
33163;BME280;29282;45.656;11.302;2023-05-12T03:13:33;97928.78;;;18.25;60.59
33163;BME280;29282;45.656;11.302;2023-05-12T03:15:59;97938.91;;;18.24;60.58
33163;BME280;29282;45.656;11.302;2023-05-12T03:18:26;97935.38;;;18.24;60.60
33163;BME280;29282;45.656;11.302;2023-05-12T03:20:52;97927.94;;;18.24;60.62
33163;BME280;29282;45.656;11.302;2023-05-12T03:23:20;97924.41;;;18.24;60.68
33163;BME280;29282;45.656;11.302;2023-05-12T03:25:48;97938.13;;;18.24;60.65
33163;BME280;29282;45.656;11.302;2023-05-12T03:28:17;97926.34;;;18.23;60.62
33163;BME280;29282;45.656;11.302;2023-05-12T03:30:45;97938.13;;;18.24;60.57
33163;BME280;29282;45.656;11.302;2023-05-12T03:33:10;97932.63;;;18.24;60.42
33163;BME280;29282;45.656;11.302;2023-05-12T03:35:36;97938.91;;;18.24;60.71
33163;BME280;29282;45.656;11.302;2023-05-12T03:38:01;97931.84;;;18.23;60.47
33163;BME280;29282;45.656;11.302;2023-05-12T03:40:27;97934.59;;;18.23;60.52
33163;BME280;29282;45.656;11.302;2023-05-12T03:42:52;97931.84;;;18.23;60.63
33163;BME280;29282;45.656;11.302;2023-05-12T03:45:18;97921.22;;;18.22;60.52
33163;BME280;29282;45.656;11.302;2023-05-12T03:47:44;97923.97;;;18.22;60.36
33163;BME280;29282;45.656;11.302;2023-05-12T03:50:09;97927.50;;;18.22;60.25
33163;BME280;29282;45.656;11.302;2023-05-12T03:52:35;97917.34;;;18.23;60.47
33163;BME280;29282;45.656;11.302;2023-05-12T03:55:03;97919.28;;;18.22;60.39
33163;BME280;29282;45.656;11.302;2023-05-12T04:00:04;97913.00;;;18.22;60.37
33163;BME280;29282;45.656;11.302;2023-05-12T04:02:30;97914.94;;;18.21;60.51
33163;BME280;29282;45.656;11.302;2023-05-12T04:04:58;97916.06;;;18.20;60.52
33163;BME280;29282;45.656;11.302;2023-05-12T04:07:23;97917.69;;;18.21;60.47
33163;BME280;29282;45.656;11.302;2023-05-12T04:09:49;97916.88;;;18.21;60.51
33163;BME280;29282;45.656;11.302;2023-05-12T04:12:14;97917.69;;;18.21;60.57
33163;BME280;29282;45.656;11.302;2023-05-12T04:14:40;97927.84;;;18.21;60.50
33163;BME280;29282;45.656;11.302;2023-05-12T04:17:05;97916.06;;;18.20;60.48
33163;BME280;29282;45.656;11.302;2023-05-12T04:19:31;97914.13;;;18.21;60.38
33163;BME280;29282;45.656;11.302;2023-05-12T04:21:57;97918.81;;;18.20;60.50
33163;BME280;29282;45.656;11.302;2023-05-12T04:24:23;97929.78;;;18.20;60.36
33163;BME280;29282;45.656;11.302;2023-05-12T04:26:49;97921.56;;;18.20;60.32
33163;BME280;29282;45.656;11.302;2023-05-12T04:29:15;97923.19;;;18.21;60.35
33163;BME280;29282;45.656;11.302;2023-05-12T04:31:40;97929.78;;;18.20;60.41
33163;BME280;29282;45.656;11.302;2023-05-12T04:34:06;97927.03;;;18.20;60.43
33163;BME280;29282;45.656;11.302;2023-05-12T04:36:31;97928.66;;;18.21;60.41
33163;BME280;29282;45.656;11.302;2023-05-12T04:38:57;97935.25;;;18.20;60.36
33163;BME280;29282;45.656;11.302;2023-05-12T04:41:23;97943.50;;;18.20;60.32
33163;BME280;29282;45.656;11.302;2023-05-12T04:43:48;97943.50;;;18.20;60.31
33163;BME280;29282;45.656;11.302;2023-05-12T04:46:15;97947.84;;;18.21;60.34
33163;BME280;29282;45.656;11.302;2023-05-12T04:48:41;97954.47;;;18.20;60.37
33163;BME280;29282;45.656;11.302;2023-05-12T04:51:07;97956.09;;;18.21;60.29
33163;BME280;29282;45.656;11.302;2023-05-12T04:53:33;97954.13;;;18.22;60.16
33163;BME280;29282;45.656;11.302;2023-05-12T04:56:00;97959.03;;;18.16;60.10
33163;BME280;29282;45.656;11.302;2023-05-12T04:58:26;97959.38;;;18.15;59.60
33163;BME280;29282;45.656;11.302;2023-05-12T05:00:54;97958.44;;;18.11;59.13
33163;BME280;29282;45.656;11.302;2023-05-12T05:03:20;97955.59;;;18.07;59.27
33163;BME280;29282;45.656;11.302;2023-05-12T05:05:45;97959.47;;;18.06;58.77
33163;BME280;29282;45.656;11.302;2023-05-12T05:08:11;97964.47;;;18.04;58.70
33163;BME280;29282;45.656;11.302;2023-05-12T05:10:36;97963.44;;;17.96;58.59
33163;BME280;29282;45.656;11.302;2023-05-12T05:13:02;97967.22;;;17.92;59.23
33163;BME280;29282;45.656;11.302;2023-05-12T05:15:27;97970.09;;;17.95;59.49
33163;BME280;29282;45.656;11.302;2023-05-12T05:17:52;97972.16;;;17.98;59.07
33163;BME280;29282;45.656;11.302;2023-05-12T05:20:18;97967.91;;;18.01;59.33
33163;BME280;29282;45.656;11.302;2023-05-12T05:22:44;97978.53;;;18.02;59.07
33163;BME280;29282;45.656;11.302;2023-05-12T05:25:09;97975.44;;;18.04;58.93
33163;BME280;29282;45.656;11.302;2023-05-12T05:27:36;97977.06;;;18.05;59.16
33163;BME280;29282;45.656;11.302;2023-05-12T05:30:04;97982.19;;;18.06;58.99
33163;BME280;29282;45.656;11.302;2023-05-12T05:32:30;97980.25;;;18.07;59.23
33163;BME280;29282;45.656;11.302;2023-05-12T05:34:55;97980.25;;;18.07;59.10
33163;BME280;29282;45.656;11.302;2023-05-12T05:37:20;97986.66;;;18.11;59.20
33163;BME280;29282;45.656;11.302;2023-05-12T05:39:46;97988.41;;;18.16;59.48
33163;BME280;29282;45.656;11.302;2023-05-12T05:42:11;97994.00;;;18.19;59.44
33163;BME280;29282;45.656;11.302;2023-05-12T05:44:37;97996.28;;;18.17;59.36
33163;BME280;29282;45.656;11.302;2023-05-12T05:47:03;97993.88;;;18.16;59.60
33163;BME280;29282;45.656;11.302;2023-05-12T05:49:29;97993.41;;;18.14;59.72
33163;BME280;29282;45.656;11.302;2023-05-12T05:51:54;97992.59;;;18.13;59.48
33163;BME280;29282;45.656;11.302;2023-05-12T05:54:22;97996.50;;;18.12;59.49
33163;BME280;29282;45.656;11.302;2023-05-12T05:56:48;98002.78;;;18.13;59.42
33163;BME280;29282;45.656;11.302;2023-05-12T05:59:14;98000.38;;;18.11;59.47
33163;BME280;29282;45.656;11.302;2023-05-12T06:01:39;98006.66;;;18.12;59.44
33163;BME280;29282;45.656;11.302;2023-05-12T06:04:05;98008.59;;;18.11;59.45
33163;BME280;29282;45.656;11.302;2023-05-12T06:06:30;98007.47;;;18.12;59.44
33163;BME280;29282;45.656;11.302;2023-05-12T06:08:56;98005.84;;;18.11;59.42
33163;BME280;29282;45.656;11.302;2023-05-12T06:11:21;98009.41;;;18.12;59.69
33163;BME280;29282;45.656;11.302;2023-05-12T06:13:47;98009.72;;;18.10;59.44
33163;BME280;29282;45.656;11.302;2023-05-12T06:16:12;98005.06;;;18.11;59.57
33163;BME280;29282;45.656;11.302;2023-05-12T06:18:41;98010.53;;;18.11;59.62
33163;BME280;29282;45.656;11.302;2023-05-12T06:21:06;98007.00;;;18.10;59.48
33163;BME280;29282;45.656;11.302;2023-05-12T06:23:32;98003.09;;;18.11;59.57
33163;BME280;29282;45.656;11.302;2023-05-12T06:25:58;98008.59;;;18.11;59.38
33163;BME280;29282;45.656;11.302;2023-05-12T06:28:23;98011.69;;;18.10;59.42
33163;BME280;29282;45.656;11.302;2023-05-12T06:30:49;98006.66;;;18.12;59.45
33163;BME280;29282;45.656;11.302;2023-05-12T06:33:14;98016.00;;;18.11;59.57
33163;BME280;29282;45.656;11.302;2023-05-12T06:35:40;98024.25;;;18.11;59.33
33163;BME280;29282;45.656;11.302;2023-05-12T06:38:05;98026.97;;;18.11;59.58
33163;BME280;29282;45.656;11.302;2023-05-12T06:40:32;98030.53;;;18.11;59.42
33163;BME280;29282;45.656;11.302;2023-05-12T06:42:57;98028.94;;;18.10;59.61
33163;BME280;29282;45.656;11.302;2023-05-12T06:45:23;98035.22;;;18.11;59.53
33163;BME280;29282;45.656;11.302;2023-05-12T06:47:48;98033.25;;;18.11;59.45
33163;BME280;29282;45.656;11.302;2023-05-12T06:50:14;98033.25;;;18.11;59.56
33163;BME280;29282;45.656;11.302;2023-05-12T06:52:42;98032.47;;;18.11;59.54
33163;BME280;29282;45.656;11.302;2023-05-12T06:55:07;98017.97;;;18.10;59.48
33163;BME280;29282;45.656;11.302;2023-05-12T06:57:33;98023.44;;;18.10;59.46
33163;BME280;29282;45.656;11.302;2023-05-12T06:59:58;98030.53;;;18.11;59.55
33163;BME280;29282;45.656;11.302;2023-05-12T07:02:27;98033.25;;;18.11;59.58
33163;BME280;29282;45.656;11.302;2023-05-12T07:04:53;98038.75;;;18.11;59.62
33163;BME280;29282;45.656;11.302;2023-05-12T07:07:18;98041.50;;;18.11;59.61
33163;BME280;29282;45.656;11.302;2023-05-12T07:09:44;98046.16;;;18.11;59.48
33163;BME280;29282;45.656;11.302;2023-05-12T07:12:10;98046.16;;;18.11;59.33
33163;BME280;29282;45.656;11.302;2023-05-12T07:14:36;98046.16;;;18.11;59.39
33163;BME280;29282;45.656;11.302;2023-05-12T07:17:01;98052.44;;;18.11;59.45
33163;BME280;29282;45.656;11.302;2023-05-12T07:19:27;98048.91;;;18.11;59.62
33163;BME280;29282;45.656;11.302;2023-05-12T07:21:52;98052.44;;;18.11;59.61
33163;BME280;29282;45.656;11.302;2023-05-12T07:24:18;98046.97;;;18.11;59.42
33163;BME280;29282;45.656;11.302;2023-05-12T07:26:44;98053.59;;;18.10;59.46
33163;BME280;29282;45.656;11.302;2023-05-12T07:29:09;98059.09;;;18.10;59.59
33163;BME280;29282;45.656;11.302;2023-05-12T07:31:35;98067.00;;;18.12;59.43
33163;BME280;29282;45.656;11.302;2023-05-12T07:34:01;98060.69;;;18.11;59.45
33163;BME280;29282;45.656;11.302;2023-05-12T07:36:27;98065.38;;;18.11;59.39
33163;BME280;29282;45.656;11.302;2023-05-12T07:38:52;98061.50;;;18.12;59.58
33163;BME280;29282;45.656;11.302;2023-05-12T07:41:18;98059.88;;;18.11;59.43
33163;BME280;29282;45.656;11.302;2023-05-12T07:43:44;98068.91;;;18.11;59.40
33163;BME280;29282;45.656;11.302;2023-05-12T07:46:10;98066.16;;;18.11;59.43
33163;BME280;29282;45.656;11.302;2023-05-12T07:48:35;98073.59;;;18.11;59.53
33163;BME280;29282;45.656;11.302;2023-05-12T07:51:04;98065.38;;;18.11;59.47
33163;BME280;29282;45.656;11.302;2023-05-12T07:53:30;98064.25;;;18.12;59.41
33163;BME280;29282;45.656;11.302;2023-05-12T07:55:55;98063.41;;;18.11;59.58
33163;BME280;29282;45.656;11.302;2023-05-12T07:58:21;98067.78;;;18.12;59.56
33163;BME280;29282;45.656;11.302;2023-05-12T08:00:46;98067.00;;;18.12;59.47
33163;BME280;29282;45.656;11.302;2023-05-12T08:03:12;98061.50;;;18.12;59.30
33163;BME280;29282;45.656;11.302;2023-05-12T08:05:37;98062.31;;;18.12;59.38
33163;BME280;29282;45.656;11.302;2023-05-12T08:08:03;98062.31;;;18.12;59.51
33163;BME280;29282;45.656;11.302;2023-05-12T08:10:28;98065.84;;;18.13;59.44
33163;BME280;29282;45.656;11.302;2023-05-12T08:12:56;98065.03;;;18.12;59.56
33163;BME280;29282;45.656;11.302;2023-05-12T08:15:22;98059.56;;;18.12;59.51
33163;BME280;29282;45.656;11.302;2023-05-12T08:17:47;98063.09;;;18.13;59.60
33163;BME280;29282;45.656;11.302;2023-05-12T08:20:13;98069.38;;;18.13;59.60
33163;BME280;29282;45.656;11.302;2023-05-12T08:22:39;98074.88;;;18.13;59.19
33163;BME280;29282;45.656;11.302;2023-05-12T08:25:05;98074.06;;;18.13;59.45
33163;BME280;29282;45.656;11.302;2023-05-12T08:27:31;98072.47;;;18.12;59.40
33163;BME280;29282;45.656;11.302;2023-05-12T08:29:56;98073.28;;;18.12;59.43
33163;BME280;29282;45.656;11.302;2023-05-12T08:32:23;98076.00;;;18.12;59.46
33163;BME280;29282;45.656;11.302;2023-05-12T08:34:48;98078.75;;;18.12;59.51
33163;BME280;29282;45.656;11.302;2023-05-12T08:37:14;98070.53;;;18.12;59.44
33163;BME280;29282;45.656;11.302;2023-05-12T08:39:40;98077.97;;;18.12;59.38
33163;BME280;29282;45.656;11.302;2023-05-12T08:42:48;98077.97;;;18.12;59.51
33163;BME280;29282;45.656;11.302;2023-05-12T08:45:15;98080.69;;;18.12;59.56
33163;BME280;29282;45.656;11.302;2023-05-12T08:47:41;98077.13;;;18.11;59.43
33163;BME280;29282;45.656;11.302;2023-05-12T08:50:09;98088.09;;;18.11;59.61
33163;BME280;29282;45.656;11.302;2023-05-12T08:52:35;98084.22;;;18.12;59.44
33163;BME280;29282;45.656;11.302;2023-05-12T08:55:01;98084.56;;;18.11;59.58
33163;BME280;29282;45.656;11.302;2023-05-12T08:57:28;98088.09;;;18.11;59.55
33163;BME280;29282;45.656;11.302;2023-05-12T08:59:55;98094.72;;;18.10;59.46
33163;BME280;29282;45.656;11.302;2023-05-12T09:02:22;98088.09;;;18.11;59.57
33163;BME280;29282;45.656;11.302;2023-05-12T09:04:49;98094.72;;;18.10;59.47
33163;BME280;29282;45.656;11.302;2023-05-12T09:07:15;98098.25;;;18.11;59.55
33163;BME280;29282;45.656;11.302;2023-05-12T09:09:43;98098.25;;;18.11;59.38
33163;BME280;29282;45.656;11.302;2023-05-12T09:12:12;98099.06;;;18.11;59.58
33163;BME280;29282;45.656;11.302;2023-05-12T09:14:39;98106.50;;;18.11;59.40
33163;BME280;29282;45.656;11.302;2023-05-12T09:17:06;98103.75;;;18.11;59.36
33163;BME280;29282;45.656;11.302;2023-05-12T09:19:32;98105.38;;;18.12;59.47
33163;BME280;29282;45.656;11.302;2023-05-12T09:21:59;98104.91;;;18.10;59.43
33163;BME280;29282;45.656;11.302;2023-05-12T09:24:38;98113.13;;;18.10;59.53
33163;BME280;29282;45.656;11.302;2023-05-12T09:27:04;98113.13;;;18.10;59.46
33163;BME280;29282;45.656;11.302;2023-05-12T09:29:30;98115.88;;;18.10;59.38
33163;BME280;29282;45.656;11.302;2023-05-12T09:32:01;98113.91;;;18.10;59.44
33163;BME280;29282;45.656;11.302;2023-05-12T09:34:32;98115.88;;;18.10;59.36
33163;BME280;29282;45.656;11.302;2023-05-12T09:37:03;98113.91;;;18.10;59.63
33163;BME280;29282;45.656;11.302;2023-05-12T09:39:29;98117.81;;;18.09;59.44
33163;BME280;29282;45.656;11.302;2023-05-12T09:41:55;98117.81;;;18.09;59.42
33163;BME280;29282;45.656;11.302;2023-05-12T09:44:23;98115.06;;;18.09;59.53
33163;BME280;29282;45.656;11.302;2023-05-12T09:46:49;98126.03;;;18.09;59.35
33163;BME280;29282;45.656;11.302;2023-05-12T09:49:19;98117.81;;;18.09;59.43
33163;BME280;29282;45.656;11.302;2023-05-12T09:51:45;98124.88;;;18.10;59.28
33163;BME280;29282;45.656;11.302;2023-05-12T09:54:11;98122.50;;;18.08;59.59
33163;BME280;29282;45.656;11.302;2023-05-12T09:56:37;98125.25;;;18.08;59.39
33163;BME280;29282;45.656;11.302;2023-05-12T09:59:03;98119.41;;;18.10;59.38
33163;BME280;29282;45.656;11.302;2023-05-12T10:01:30;98118.59;;;18.10;59.40
33163;BME280;29282;45.656;11.302;2023-05-12T10:03:58;98123.28;;;18.09;59.56
33163;BME280;29282;45.656;11.302;2023-05-12T10:06:29;98117.81;;;18.09;59.50
33163;BME280;29282;45.656;11.302;2023-05-12T10:11:46;98124.44;;;18.08;59.37
33163;BME280;29282;45.656;11.302;2023-05-12T10:14:12;98120.88;;;18.07;59.57
33163;BME280;29282;45.656;11.302;2023-05-12T10:16:39;98126.34;;;18.07;59.51
33163;BME280;29282;45.656;11.302;2023-05-12T10:19:05;98131.84;;;18.07;59.38
33163;BME280;29282;45.656;11.302;2023-05-12T10:21:31;98128.28;;;18.07;59.52
33163;BME280;29282;45.656;11.302;2023-05-12T10:23:57;98126.34;;;18.07;59.38
33163;BME280;29282;45.656;11.302;2023-05-12T10:26:23;98120.06;;;18.07;59.46
33163;BME280;29282;45.656;11.302;2023-05-12T10:28:50;98139.25;;;18.07;59.61
33163;BME280;29282;45.656;11.302;2023-05-12T10:31:18;98133.47;;;18.08;59.49
33163;BME280;29282;45.656;11.302;2023-05-12T10:33:55;98143.63;;;18.08;59.66
33163;BME280;29282;45.656;11.302;2023-05-12T10:36:20;98140.06;;;18.07;59.37
33163;BME280;29282;45.656;11.302;2023-05-12T10:38:47;98137.31;;;18.07;59.49
33163;BME280;29282;45.656;11.302;2023-05-12T10:41:16;98146.38;;;18.08;59.43
33163;BME280;29282;45.656;11.302;2023-05-12T10:43:52;98142.81;;;18.07;59.49
33163;BME280;29282;45.656;11.302;2023-05-12T10:46:19;98145.53;;;18.07;59.26
33163;BME280;29282;45.656;11.302;2023-05-12T10:48:56;98150.22;;;18.07;59.68
33163;BME280;29282;45.656;11.302;2023-05-12T10:51:29;98150.03;;;18.12;59.40
33163;BME280;29282;45.656;11.302;2023-05-12T10:54:03;98155.97;;;18.14;59.39
33163;BME280;29282;45.656;11.302;2023-05-12T11:01:32;98137.25;;;18.16;60.80
33163;BME280;29282;45.656;11.302;2023-05-12T11:04:15;98165.16;;;18.18;61.60
33163;BME280;29282;45.656;11.302;2023-05-12T11:06:42;98145.97;;;18.18;61.01
33163;BME280;29282;45.656;11.302;2023-05-12T11:09:08;98155.56;;;18.24;60.78
33163;BME280;29282;45.656;11.302;2023-05-12T11:11:35;98149.06;;;18.29;59.98
33163;BME280;29282;45.656;11.302;2023-05-12T11:14:01;98148.41;;;18.32;59.68
33163;BME280;29282;45.656;11.302;2023-05-12T11:16:26;98152.56;;;18.38;59.15
33163;BME280;29282;45.656;11.302;2023-05-12T11:19:04;98162.84;;;18.41;58.95
33163;BME280;29282;45.656;11.302;2023-05-12T11:21:33;98157.50;;;18.45;58.55
33163;BME280;29282;45.656;11.302;2023-05-12T11:24:01;98154.53;;;18.50;58.20
33163;BME280;29282;45.656;11.302;2023-05-12T11:26:30;98153.84;;;18.53;57.93
33163;BME280;29282;45.656;11.302;2023-05-12T11:28:56;98160.47;;;18.52;58.04
33163;BME280;29282;45.656;11.302;2023-05-12T11:31:25;98158.66;;;18.56;57.66
33163;BME280;29282;45.656;11.302;2023-05-12T11:34:04;98155.13;;;18.55;57.67
33163;BME280;29282;45.656;11.302;2023-05-12T11:36:38;98145.41;;;18.58;57.54
33163;BME280;29282;45.656;11.302;2023-05-12T11:39:05;98137.97;;;18.59;57.18
33163;BME280;29282;45.656;11.302;2023-05-12T11:41:31;98137.84;;;18.55;57.28
33163;BME280;29282;45.656;11.302;2023-05-12T11:43:57;98137.63;;;18.60;57.25
33163;BME280;29282;45.656;11.302;2023-05-12T11:46:29;98141.16;;;18.61;56.95
33163;BME280;29282;45.656;11.302;2023-05-12T11:48:56;98144.38;;;18.63;56.90
33163;BME280;29282;45.656;11.302;2023-05-12T11:51:22;98151.34;;;18.60;57.15
33163;BME280;29282;45.656;11.302;2023-05-12T11:53:49;98143.59;;;18.62;56.97
33163;BME280;29282;45.656;11.302;2023-05-12T11:56:19;98147.25;;;18.66;56.82
33163;BME280;29282;45.656;11.302;2023-05-12T11:58:55;98146.44;;;18.66;56.36
33163;BME280;29282;45.656;11.302;2023-05-12T12:01:22;98148.53;;;18.69;56.93
33163;BME280;29282;45.656;11.302;2023-05-12T12:03:49;98144.50;;;18.66;56.62
33163;BME280;29282;45.656;11.302;2023-05-12T12:06:16;98145.78;;;18.69;56.70
33163;BME280;29282;45.656;11.302;2023-05-12T12:08:53;98141.88;;;18.70;56.74
33163;BME280;29282;45.656;11.302;2023-05-12T12:11:20;98149.31;;;18.69;56.39
33163;BME280;29282;45.656;11.302;2023-05-12T12:13:50;98149.66;;;18.68;56.52
33163;BME280;29282;45.656;11.302;2023-05-12T12:16:24;98149.78;;;18.71;56.28
33163;BME280;29282;45.656;11.302;2023-05-12T12:18:50;98152.53;;;18.71;56.20
33163;BME280;29282;45.656;11.302;2023-05-12T12:21:16;98151.41;;;18.72;56.48
33163;BME280;29282;45.656;11.302;2023-05-12T12:23:42;98158.03;;;18.71;56.39
33163;BME280;29282;45.656;11.302;2023-05-12T12:26:07;98150.13;;;18.70;56.40
33163;BME280;29282;45.656;11.302;2023-05-12T12:28:33;98153.38;;;18.72;56.11
33163;BME280;29282;45.656;11.302;2023-05-12T12:30:59;98146.72;;;18.73;56.16
33163;BME280;29282;45.656;11.302;2023-05-12T12:33:25;98151.75;;;18.71;56.25
33163;BME280;29282;45.656;11.302;2023-05-12T12:35:51;98158.03;;;18.71;56.18
33163;BME280;29282;45.656;11.302;2023-05-12T12:38:16;98172.69;;;18.75;56.08
33163;BME280;29282;45.656;11.302;2023-05-12T12:40:41;98168.78;;;18.76;55.76
33163;BME280;29282;45.656;11.302;2023-05-12T12:43:07;98154.16;;;18.72;56.12
33163;BME280;29282;45.656;11.302;2023-05-12T12:45:33;98160.44;;;18.73;56.17
33163;BME280;29282;45.656;11.302;2023-05-12T12:47:59;98157.81;;;18.76;55.85
33163;BME280;29282;45.656;11.302;2023-05-12T12:50:24;98154.28;;;18.76;55.90
33163;BME280;29282;45.656;11.302;2023-05-12T12:52:50;98157.03;;;18.76;55.79
33163;BME280;29282;45.656;11.302;2023-05-12T12:55:16;98153.13;;;18.77;55.83
33163;BME280;29282;45.656;11.302;2023-05-12T12:57:41;98154.63;;;18.74;55.75